Century, Florida
Current Conditions -  °F | °C
As of 3:56 AM on Thursday 18 Dec 2014 (Local Time) from KNSE Reporting Station
Clear Clear  
Wind Chill: 37°   Ceiling: Unl
Heat Index: 37°   Visibility: NA
Dew Point: 36°   Wind: 3mph
Humidity: 96%   Direction: 340°NNW
Pressure: 30.18"   Gusts: NA
Location:  30.97°N, 87.26°W
Report Text: KNSE 180956Z AUTO 34003KT CLR 03/02 A3018 RMK AO2 SLP208 T00280022 $
Loading
Personal Weather Stations






























Interactive Weather Map New forecast layout! Learn more

10-Day Weather Forecast

Advertisements
Track Severe Weather on mobile